sensor_id;sensor_type;location;lat;lon;timestamp;temperature;humidity
22319;DHT22;11327;52.334;9.506;2023-04-24T00:03:19;12.50;99.90
22319;DHT22;11327;52.334;9.506;2023-04-24T00:06:41;12.60;99.90
22319;DHT22;11327;52.334;9.506;2023-04-24T00:10:03;12.50;99.90
22319;DHT22;11327;52.334;9.506;2023-04-24T00:13:24;12.50;99.90
22319;DHT22;11327;52.334;9.506;2023-04-24T00:16:45;12.50;99.90
22319;DHT22;11327;52.334;9.506;2023-04-24T00:20:06;12.40;99.90
22319;DHT22;11327;52.334;9.506;2023-04-24T00:23:27;12.40;99.90
22319;DHT22;11327;52.334;9.506;2023-04-24T00:26:49;12.40;99.90
22319;DHT22;11327;52.334;9.506;2023-04-24T00:30:10;12.40;99.90
22319;DHT22;11327;52.334;9.506;2023-04-24T00:33:31;12.50;99.90
22319;DHT22;11327;52.334;9.506;2023-04-24T00:36:51;12.50;99.90
22319;DHT22;11327;52.334;9.506;2023-04-24T00:40:12;12.50;99.90
22319;DHT22;11327;52.334;9.506;2023-04-24T00:43:33;12.50;99.90
22319;DHT22;11327;52.334;9.506;2023-04-24T00:46:54;12.50;99.90
22319;DHT22;11327;52.334;9.506;2023-04-24T00:50:16;12.50;99.90
22319;DHT22;11327;52.334;9.506;2023-04-24T00:53:36;12.50;99.90
22319;DHT22;11327;52.334;9.506;2023-04-24T00:56:57;12.50;99.90
22319;DHT22;11327;52.334;9.506;2023-04-24T01:00:18;12.40;99.90
22319;DHT22;11327;52.334;9.506;2023-04-24T01:03:40;12.50;99.90
22319;DHT22;11327;52.334;9.506;2023-04-24T01:07:01;12.40;99.90
22319;DHT22;11327;52.334;9.506;2023-04-24T01:10:22;12.30;99.90
22319;DHT22;11327;52.334;9.506;2023-04-24T01:13:44;12.40;99.90
22319;DHT22;11327;52.334;9.506;2023-04-24T01:17:06;12.30;99.90
22319;DHT22;11327;52.334;9.506;2023-04-24T01:20:28;12.20;99.90
22319;DHT22;11327;52.334;9.506;2023-04-24T01:23:50;12.20;99.90
22319;DHT22;11327;52.334;9.506;2023-04-24T01:27:12;12.10;99.90
22319;DHT22;11327;52.334;9.506;2023-04-24T01:30:33;12.10;99.90
22319;DHT22;11327;52.334;9.506;2023-04-24T01:33:54;12.00;99.90
22319;DHT22;11327;52.334;9.506;2023-04-24T01:37:15;12.00;99.90
22319;DHT22;11327;52.334;9.506;2023-04-24T01:40:37;11.90;99.90
22319;DHT22;11327;52.334;9.506;2023-04-24T01:43:58;11.90;99.90
22319;DHT22;11327;52.334;9.506;2023-04-24T01:47:19;11.90;99.90
22319;DHT22;11327;52.334;9.506;2023-04-24T01:50:40;11.80;99.90
22319;DHT22;11327;52.334;9.506;2023-04-24T01:54:00;11.60;99.90
22319;DHT22;11327;52.334;9.506;2023-04-24T01:57:22;11.60;99.90
22319;DHT22;11327;52.334;9.506;2023-04-24T02:00:43;11.70;99.90
22319;DHT22;11327;52.334;9.506;2023-04-24T02:04:05;11.60;99.90
22319;DHT22;11327;52.334;9.506;2023-04-24T02:07:26;11.70;99.90
22319;DHT22;11327;52.334;9.506;2023-04-24T02:10:46;11.80;99.90
22319;DHT22;11327;52.334;9.506;2023-04-24T02:14:07;11.80;99.90
22319;DHT22;11327;52.334;9.506;2023-04-24T02:17:28;11.80;99.90
22319;DHT22;11327;52.334;9.506;2023-04-24T02:20:49;11.80;99.90
22319;DHT22;11327;52.334;9.506;2023-04-24T02:24:09;11.80;99.90
22319;DHT22;11327;52.334;9.506;2023-04-24T02:27:30;11.80;99.90
22319;DHT22;11327;52.334;9.506;2023-04-24T02:30:51;11.80;99.90
22319;DHT22;11327;52.334;9.506;2023-04-24T02:34:11;11.80;99.90
22319;DHT22;11327;52.334;9.506;2023-04-24T02:37:32;11.70;99.90
22319;DHT22;11327;52.334;9.506;2023-04-24T02:40:53;11.70;99.90
22319;DHT22;11327;52.334;9.506;2023-04-24T02:44:14;11.70;99.90
22319;DHT22;11327;52.334;9.506;2023-04-24T02:47:35;11.50;99.90
22319;DHT22;11327;52.334;9.506;2023-04-24T02:50:55;11.60;99.90
22319;DHT22;11327;52.334;9.506;2023-04-24T02:54:17;11.50;99.90
22319;DHT22;11327;52.334;9.506;2023-04-24T02:57:38;11.60;99.90
22319;DHT22;11327;52.334;9.506;2023-04-24T03:00:59;11.40;99.90
22319;DHT22;11327;52.334;9.506;2023-04-24T03:04:20;11.40;99.90
22319;DHT22;11327;52.334;9.506;2023-04-24T03:07:43;11.40;99.90
22319;DHT22;11327;52.334;9.506;2023-04-24T03:11:03;11.40;99.90
22319;DHT22;11327;52.334;9.506;2023-04-24T03:14:25;11.40;99.90
22319;DHT22;11327;52.334;9.506;2023-04-24T03:17:45;11.30;99.90
22319;DHT22;11327;52.334;9.506;2023-04-24T03:21:06;11.20;99.90
22319;DHT22;11327;52.334;9.506;2023-04-24T03:24:27;11.30;99.90
22319;DHT22;11327;52.334;9.506;2023-04-24T03:27:48;11.30;99.90
22319;DHT22;11327;52.334;9.506;2023-04-24T03:31:09;11.20;99.90
22319;DHT22;11327;52.334;9.506;2023-04-24T03:34:30;11.30;99.90
22319;DHT22;11327;52.334;9.506;2023-04-24T03:37:51;11.20;99.90
22319;DHT22;11327;52.334;9.506;2023-04-24T03:41:12;11.20;99.90
22319;DHT22;11327;52.334;9.506;2023-04-24T03:44:32;11.20;99.90
22319;DHT22;11327;52.334;9.506;2023-04-24T03:47:53;11.20;99.90
22319;DHT22;11327;52.334;9.506;2023-04-24T03:51:14;11.10;99.90
22319;DHT22;11327;52.334;9.506;2023-04-24T03:54:34;11.10;99.90
22319;DHT22;11327;52.334;9.506;2023-04-24T03:57:55;11.10;99.90
22319;DHT22;11327;52.334;9.506;2023-04-24T04:01:16;11.10;99.90
22319;DHT22;11327;52.334;9.506;2023-04-24T04:04:37;11.10;99.90
22319;DHT22;11327;52.334;9.506;2023-04-24T04:07:57;11.10;99.90
22319;DHT22;11327;52.334;9.506;2023-04-24T04:11:18;11.20;99.90
22319;DHT22;11327;52.334;9.506;2023-04-24T04:14:39;11.30;99.90
22319;DHT22;11327;52.334;9.506;2023-04-24T04:18:00;11.30;99.90
22319;DHT22;11327;52.334;9.506;2023-04-24T04:21:21;11.30;99.90
22319;DHT22;11327;52.334;9.506;2023-04-24T04:24:41;11.30;99.90
22319;DHT22;11327;52.334;9.506;2023-04-24T04:28:03;11.40;99.90
22319;DHT22;11327;52.334;9.506;2023-04-24T04:31:24;11.30;99.90
22319;DHT22;11327;52.334;9.506;2023-04-24T04:34:45;11.30;99.90
22319;DHT22;11327;52.334;9.506;2023-04-24T04:38:06;11.30;99.90
22319;DHT22;11327;52.334;9.506;2023-04-24T04:41:28;11.30;99.90
22319;DHT22;11327;52.334;9.506;2023-04-24T04:44:49;11.40;99.90
22319;DHT22;11327;52.334;9.506;2023-04-24T04:48:10;11.40;99.90
22319;DHT22;11327;52.334;9.506;2023-04-24T04:51:33;11.40;99.90
22319;DHT22;11327;52.334;9.506;2023-04-24T04:54:54;11.40;99.90
22319;DHT22;11327;52.334;9.506;2023-04-24T04:58:15;11.50;99.90
22319;DHT22;11327;52.334;9.506;2023-04-24T05:01:36;11.50;99.90
22319;DHT22;11327;52.334;9.506;2023-04-24T05:04:57;11.50;99.90
22319;DHT22;11327;52.334;9.506;2023-04-24T05:08:17;11.60;99.90
22319;DHT22;11327;52.334;9.506;2023-04-24T05:11:38;11.60;99.90
22319;DHT22;11327;52.334;9.506;2023-04-24T05:14:59;11.70;99.90
22319;DHT22;11327;52.334;9.506;2023-04-24T05:18:20;11.70;99.90
22319;DHT22;11327;52.334;9.506;2023-04-24T05:21:41;11.70;99.90
22319;DHT22;11327;52.334;9.506;2023-04-24T05:25:02;11.80;99.90
22319;DHT22;11327;52.334;9.506;2023-04-24T05:28:23;11.80;99.90
22319;DHT22;11327;52.334;9.506;2023-04-24T05:31:43;11.80;99.90
22319;DHT22;11327;52.334;9.506;2023-04-24T05:35:04;11.90;99.90
22319;DHT22;11327;52.334;9.506;2023-04-24T05:38:26;11.80;99.90
22319;DHT22;11327;52.334;9.506;2023-04-24T05:41:46;11.90;99.90
22319;DHT22;11327;52.334;9.506;2023-04-24T05:45:07;11.90;99.90
22319;DHT22;11327;52.334;9.506;2023-04-24T05:48:29;11.80;99.90
22319;DHT22;11327;52.334;9.506;2023-04-24T05:51:51;11.90;99.90
22319;DHT22;11327;52.334;9.506;2023-04-24T05:55:11;11.80;99.90
22319;DHT22;11327;52.334;9.506;2023-04-24T05:58:32;11.90;99.90
22319;DHT22;11327;52.334;9.506;2023-04-24T06:01:53;11.90;99.90
22319;DHT22;11327;52.334;9.506;2023-04-24T06:05:14;11.90;99.90
22319;DHT22;11327;52.334;9.506;2023-04-24T06:08:35;11.90;99.90
22319;DHT22;11327;52.334;9.506;2023-04-24T06:11:56;12.00;99.90
22319;DHT22;11327;52.334;9.506;2023-04-24T06:15:17;11.90;99.90
22319;DHT22;11327;52.334;9.506;2023-04-24T06:18:37;11.90;99.90
22319;DHT22;11327;52.334;9.506;2023-04-24T06:21:58;11.80;99.90
22319;DHT22;11327;52.334;9.506;2023-04-24T06:25:19;11.80;99.90
22319;DHT22;11327;52.334;9.506;2023-04-24T06:28:40;11.80;99.90
22319;DHT22;11327;52.334;9.506;2023-04-24T06:32:00;11.70;99.90
22319;DHT22;11327;52.334;9.506;2023-04-24T06:35:21;11.80;99.90
22319;DHT22;11327;52.334;9.506;2023-04-24T06:38:42;11.80;99.90
22319;DHT22;11327;52.334;9.506;2023-04-24T06:42:03;11.80;99.90
22319;DHT22;11327;52.334;9.506;2023-04-24T06:45:23;11.80;99.90
22319;DHT22;11327;52.334;9.506;2023-04-24T06:48:44;11.70;99.90
22319;DHT22;11327;52.334;9.506;2023-04-24T06:52:05;11.70;99.90
22319;DHT22;11327;52.334;9.506;2023-04-24T06:55:26;11.70;99.90
22319;DHT22;11327;52.334;9.506;2023-04-24T06:58:48;11.70;99.90
22319;DHT22;11327;52.334;9.506;2023-04-24T07:02:08;11.80;99.90
22319;DHT22;11327;52.334;9.506;2023-04-24T07:05:29;11.80;99.90
22319;DHT22;11327;52.334;9.506;2023-04-24T07:08:50;11.90;99.90
22319;DHT22;11327;52.334;9.506;2023-04-24T07:12:11;11.80;99.90
22319;DHT22;11327;52.334;9.506;2023-04-24T07:15:32;11.80;99.90
22319;DHT22;11327;52.334;9.506;2023-04-24T07:18:53;11.80;99.90
22319;DHT22;11327;52.334;9.506;2023-04-24T07:22:13;11.70;99.90
22319;DHT22;11327;52.334;9.506;2023-04-24T07:25:36;11.70;99.90
22319;DHT22;11327;52.334;9.506;2023-04-24T07:28:57;11.60;99.90
22319;DHT22;11327;52.334;9.506;2023-04-24T07:32:18;11.70;99.90
22319;DHT22;11327;52.334;9.506;2023-04-24T07:35:38;11.70;99.90
22319;DHT22;11327;52.334;9.506;2023-04-24T07:38:59;11.60;99.90
22319;DHT22;11327;52.334;9.506;2023-04-24T07:42:20;11.60;99.90
22319;DHT22;11327;52.334;9.506;2023-04-24T07:45:41;11.70;99.90
22319;DHT22;11327;52.334;9.506;2023-04-24T07:49:01;11.70;99.90
22319;DHT22;11327;52.334;9.506;2023-04-24T07:52:23;11.80;99.90
22319;DHT22;11327;52.334;9.506;2023-04-24T07:55:44;11.80;99.90
22319;DHT22;11327;52.334;9.506;2023-04-24T07:59:05;11.80;99.90
22319;DHT22;11327;52.334;9.506;2023-04-24T08:02:26;11.80;99.90
22319;DHT22;11327;52.334;9.506;2023-04-24T08:05:47;11.80;99.90
22319;DHT22;11327;52.334;9.506;2023-04-24T08:09:08;11.80;99.90
22319;DHT22;11327;52.334;9.506;2023-04-24T08:12:29;11.80;99.90
22319;DHT22;11327;52.334;9.506;2023-04-24T08:15:50;11.80;99.90
22319;DHT22;11327;52.334;9.506;2023-04-24T08:19:10;11.80;99.90
22319;DHT22;11327;52.334;9.506;2023-04-24T08:22:31;11.90;99.90
22319;DHT22;11327;52.334;9.506;2023-04-24T08:25:52;11.90;99.90
22319;DHT22;11327;52.334;9.506;2023-04-24T08:29:12;11.90;99.90
22319;DHT22;11327;52.334;9.506;2023-04-24T08:32:33;11.90;99.90
22319;DHT22;11327;52.334;9.506;2023-04-24T08:35:54;11.80;99.90
22319;DHT22;11327;52.334;9.506;2023-04-24T08:39:15;11.70;99.90
22319;DHT22;11327;52.334;9.506;2023-04-24T08:42:38;11.70;99.90
22319;DHT22;11327;52.334;9.506;2023-04-24T08:46:00;11.70;99.90
22319;DHT22;11327;52.334;9.506;2023-04-24T08:49:21;11.70;99.90
22319;DHT22;11327;52.334;9.506;2023-04-24T08:52:43;11.70;99.90
22319;DHT22;11327;52.334;9.506;2023-04-24T08:56:05;11.80;99.90
22319;DHT22;11327;52.334;9.506;2023-04-24T08:59:25;11.80;99.90
22319;DHT22;11327;52.334;9.506;2023-04-24T09:02:48;11.80;99.90
22319;DHT22;11327;52.334;9.506;2023-04-24T09:06:10;11.90;99.90
22319;DHT22;11327;52.334;9.506;2023-04-24T09:09:32;12.00;99.90
22319;DHT22;11327;52.334;9.506;2023-04-24T09:12:53;11.90;99.90
22319;DHT22;11327;52.334;9.506;2023-04-24T09:16:15;11.90;99.90
22319;DHT22;11327;52.334;9.506;2023-04-24T09:19:36;11.90;99.90
22319;DHT22;11327;52.334;9.506;2023-04-24T09:22:57;11.90;99.90
22319;DHT22;11327;52.334;9.506;2023-04-24T09:26:18;12.00;99.90
22319;DHT22;11327;52.334;9.506;2023-04-24T09:29:59;12.00;99.90
22319;DHT22;11327;52.334;9.506;2023-04-24T09:33:18;12.00;99.90
22319;DHT22;11327;52.334;9.506;2023-04-24T09:36:40;12.10;99.90
22319;DHT22;11327;52.334;9.506;2023-04-24T09:43:33;12.30;99.90
22319;DHT22;11327;52.334;9.506;2023-04-24T09:46:56;12.40;99.90
22319;DHT22;11327;52.334;9.506;2023-04-24T09:50:17;12.20;99.90
22319;DHT22;11327;52.334;9.506;2023-04-24T09:53:38;12.30;99.90
22319;DHT22;11327;52.334;9.506;2023-04-24T09:57:02;12.40;99.90
22319;DHT22;11327;52.334;9.506;2023-04-24T10:00:25;12.40;99.90
22319;DHT22;11327;52.334;9.506;2023-04-24T10:03:46;12.40;99.90
22319;DHT22;11327;52.334;9.506;2023-04-24T10:07:08;12.20;99.90
22319;DHT22;11327;52.334;9.506;2023-04-24T10:10:32;12.20;99.90
22319;DHT22;11327;52.334;9.506;2023-04-24T10:13:53;12.20;99.90
22319;DHT22;11327;52.334;9.506;2023-04-24T10:17:14;12.30;99.90
22319;DHT22;11327;52.334;9.506;2023-04-24T10:20:38;12.40;99.90
22319;DHT22;11327;52.334;9.506;2023-04-24T10:24:00;12.40;99.90
22319;DHT22;11327;52.334;9.506;2023-04-24T10:27:23;12.40;99.90
22319;DHT22;11327;52.334;9.506;2023-04-24T10:30:45;12.40;99.90
22319;DHT22;11327;52.334;9.506;2023-04-24T10:34:06;12.50;99.90
22319;DHT22;11327;52.334;9.506;2023-04-24T10:37:27;12.50;99.90
22319;DHT22;11327;52.334;9.506;2023-04-24T10:40:49;12.50;99.90
22319;DHT22;11327;52.334;9.506;2023-04-24T10:44:14;12.60;99.90
22319;DHT22;11327;52.334;9.506;2023-04-24T10:47:42;12.40;99.90
22319;DHT22;11327;52.334;9.506;2023-04-24T10:51:03;12.40;99.90
22319;DHT22;11327;52.334;9.506;2023-04-24T10:54:26;12.40;99.90
22319;DHT22;11327;52.334;9.506;2023-04-24T10:58:03;12.40;99.90
22319;DHT22;11327;52.334;9.506;2023-04-24T11:01:32;12.40;99.90
22319;DHT22;11327;52.334;9.506;2023-04-24T11:04:53;12.30;99.90
22319;DHT22;11327;52.334;9.506;2023-04-24T11:08:16;12.40;99.90
22319;DHT22;11327;52.334;9.506;2023-04-24T11:11:44;12.40;99.90
22319;DHT22;11327;52.334;9.506;2023-04-24T11:15:02;12.70;99.90
22319;DHT22;11327;52.334;9.506;2023-04-24T11:18:23;12.90;99.90
22319;DHT22;11327;52.334;9.506;2023-04-24T11:21:48;12.90;99.90
22319;DHT22;11327;52.334;9.506;2023-04-24T11:25:11;13.00;99.90
22319;DHT22;11327;52.334;9.506;2023-04-24T11:28:32;12.90;99.90
22319;DHT22;11327;52.334;9.506;2023-04-24T11:31:53;12.90;99.90
22319;DHT22;11327;52.334;9.506;2023-04-24T11:35:19;12.80;99.90
22319;DHT22;11327;52.334;9.506;2023-04-24T11:38:41;12.80;99.90
22319;DHT22;11327;52.334;9.506;2023-04-24T11:42:03;13.10;99.90
22319;DHT22;11327;52.334;9.506;2023-04-24T11:45:26;13.50;99.90
22319;DHT22;11327;52.334;9.506;2023-04-24T11:48:47;13.60;99.90
22319;DHT22;11327;52.334;9.506;2023-04-24T11:52:08;13.70;99.90
22319;DHT22;11327;52.334;9.506;2023-04-24T11:55:31;13.30;99.90
22319;DHT22;11327;52.334;9.506;2023-04-24T11:58:52;13.20;99.90
22319;DHT22;11327;52.334;9.506;2023-04-24T12:02:23;13.00;99.90
22319;DHT22;11327;52.334;9.506;2023-04-24T12:05:43;12.90;99.90
22319;DHT22;11327;52.334;9.506;2023-04-24T12:09:05;12.90;99.90
22319;DHT22;11327;52.334;9.506;2023-04-24T12:12:27;12.70;99.90
22319;DHT22;11327;52.334;9.506;2023-04-24T12:15:50;12.70;99.90
22319;DHT22;11327;52.334;9.506;2023-04-24T12:19:11;12.60;99.90
22319;DHT22;11327;52.334;9.506;2023-04-24T12:22:49;12.70;99.90
22319;DHT22;11327;52.334;9.506;2023-04-24T12:26:11;12.80;99.90
22319;DHT22;11327;52.334;9.506;2023-04-24T12:29:32;12.50;99.90
22319;DHT22;11327;52.334;9.506;2023-04-24T12:32:53;12.10;99.90
22319;DHT22;11327;52.334;9.506;2023-04-24T12:40:06;12.00;99.90
22319;DHT22;11327;52.334;9.506;2023-04-24T12:43:27;12.00;99.90
22319;DHT22;11327;52.334;9.506;2023-04-24T12:46:48;12.00;99.90
22319;DHT22;11327;52.334;9.506;2023-04-24T12:50:10;12.00;99.90
22319;DHT22;11327;52.334;9.506;2023-04-24T12:53:31;11.70;99.90
22319;DHT22;11327;52.334;9.506;2023-04-24T12:56:51;11.40;99.90
22319;DHT22;11327;52.334;9.506;2023-04-24T13:00:12;11.10;99.90
22319;DHT22;11327;52.334;9.506;2023-04-24T13:03:33;11.00;99.90
22319;DHT22;11327;52.334;9.506;2023-04-24T13:06:54;10.90;99.90
22319;DHT22;11327;52.334;9.506;2023-04-24T13:10:15;11.00;99.90
22319;DHT22;11327;52.334;9.506;2023-04-24T13:13:35;11.10;99.90
22319;DHT22;11327;52.334;9.506;2023-04-24T13:16:56;11.20;99.90
22319;DHT22;11327;52.334;9.506;2023-04-24T13:20:17;11.20;99.90
22319;DHT22;11327;52.334;9.506;2023-04-24T13:23:38;11.20;99.90
22319;DHT22;11327;52.334;9.506;2023-04-24T13:26:59;11.40;99.90
22319;DHT22;11327;52.334;9.506;2023-04-24T13:30:21;11.30;99.90
22319;DHT22;11327;52.334;9.506;2023-04-24T13:33:41;11.30;99.90
22319;DHT22;11327;52.334;9.506;2023-04-24T13:37:03;11.20;99.90
22319;DHT22;11327;52.334;9.506;2023-04-24T13:40:24;10.80;99.90
22319;DHT22;11327;52.334;9.506;2023-04-24T13:43:45;10.70;99.90
22319;DHT22;11327;52.334;9.506;2023-04-24T13:47:05;10.60;99.90
22319;DHT22;11327;52.334;9.506;2023-04-24T13:50:26;10.30;99.90
22319;DHT22;11327;52.334;9.506;2023-04-24T13:53:47;10.20;99.90
22319;DHT22;11327;52.334;9.506;2023-04-24T13:57:07;10.00;99.90
22319;DHT22;11327;52.334;9.506;2023-04-24T14:00:28;10.00;99.90
22319;DHT22;11327;52.334;9.506;2023-04-24T14:03:49;10.00;99.90
22319;DHT22;11327;52.334;9.506;2023-04-24T14:07:10;10.00;99.90
22319;DHT22;11327;52.334;9.506;2023-04-24T14:10:31;10.00;99.90
22319;DHT22;11327;52.334;9.506;2023-04-24T14:13:53;9.70;99.90
22319;DHT22;11327;52.334;9.506;2023-04-24T14:17:15;9.60;99.90
22319;DHT22;11327;52.334;9.506;2023-04-24T14:20:36;9.50;99.90
22319;DHT22;11327;52.334;9.506;2023-04-24T14:23:57;9.60;99.90
22319;DHT22;11327;52.334;9.506;2023-04-24T14:27:19;9.50;99.90
22319;DHT22;11327;52.334;9.506;2023-04-24T14:30:40;9.60;99.90
22319;DHT22;11327;52.334;9.506;2023-04-24T14:34:01;9.60;99.90
22319;DHT22;11327;52.334;9.506;2023-04-24T14:37:21;9.50;99.90
22319;DHT22;11327;52.334;9.506;2023-04-24T14:40:42;9.60;99.90
22319;DHT22;11327;52.334;9.506;2023-04-24T14:44:03;9.50;99.90
22319;DHT22;11327;52.334;9.506;2023-04-24T14:47:25;9.60;99.90
22319;DHT22;11327;52.334;9.506;2023-04-24T14:50:46;9.60;99.90
22319;DHT22;11327;52.334;9.506;2023-04-24T14:54:06;9.60;99.90
22319;DHT22;11327;52.334;9.506;2023-04-24T14:57:27;9.50;99.90
22319;DHT22;11327;52.334;9.506;2023-04-24T15:00:48;9.50;99.90
22319;DHT22;11327;52.334;9.506;2023-04-24T15:04:10;9.50;99.90
22319;DHT22;11327;52.334;9.506;2023-04-24T15:07:31;9.60;99.90
22319;DHT22;11327;52.334;9.506;2023-04-24T15:10:52;9.60;99.90
22319;DHT22;11327;52.334;9.506;2023-04-24T15:14:14;9.80;99.90
22319;DHT22;11327;52.334;9.506;2023-04-24T15:17:55;9.90;99.90
22319;DHT22;11327;52.334;9.506;2023-04-24T15:21:15;9.80;99.90
22319;DHT22;11327;52.334;9.506;2023-04-24T15:24:36;9.90;99.90
22319;DHT22;11327;52.334;9.506;2023-04-24T15:27:57;9.90;99.90
22319;DHT22;11327;52.334;9.506;2023-04-24T15:31:19;9.90;99.90
22319;DHT22;11327;52.334;9.506;2023-04-24T15:34:40;9.90;99.90
22319;DHT22;11327;52.334;9.506;2023-04-24T15:38:01;9.90;99.90
22319;DHT22;11327;52.334;9.506;2023-04-24T15:41:22;10.00;99.90
22319;DHT22;11327;52.334;9.506;2023-04-24T15:44:43;10.00;99.90
22319;DHT22;11327;52.334;9.506;2023-04-24T15:48:04;10.00;99.90
22319;DHT22;11327;52.334;9.506;2023-04-24T15:51:25;10.10;99.90
22319;DHT22;11327;52.334;9.506;2023-04-24T15:54:47;10.10;99.90
22319;DHT22;11327;52.334;9.506;2023-04-24T15:58:07;10.10;99.90
22319;DHT22;11327;52.334;9.506;2023-04-24T16:01:29;10.10;99.90
22319;DHT22;11327;52.334;9.506;2023-04-24T16:04:50;10.20;99.90
22319;DHT22;11327;52.334;9.506;2023-04-24T16:08:12;10.20;99.90
22319;DHT22;11327;52.334;9.506;2023-04-24T16:11:34;10.10;99.90
22319;DHT22;11327;52.334;9.506;2023-04-24T16:14:59;10.00;99.90
22319;DHT22;11327;52.334;9.506;2023-04-24T16:18:20;10.00;99.90
22319;DHT22;11327;52.334;9.506;2023-04-24T16:21:42;9.90;99.90
22319;DHT22;11327;52.334;9.506;2023-04-24T16:25:03;9.90;99.90
22319;DHT22;11327;52.334;9.506;2023-04-24T16:28:24;9.70;99.90
22319;DHT22;11327;52.334;9.506;2023-04-24T16:31:46;9.60;99.90
22319;DHT22;11327;52.334;9.506;2023-04-24T16:35:07;9.60;99.90
22319;DHT22;11327;52.334;9.506;2023-04-24T16:38:28;9.50;99.90
22319;DHT22;11327;52.334;9.506;2023-04-24T16:41:49;9.40;99.90
22319;DHT22;11327;52.334;9.506;2023-04-24T16:45:10;9.40;99.90
22319;DHT22;11327;52.334;9.506;2023-04-24T16:48:31;9.40;99.90
22319;DHT22;11327;52.334;9.506;2023-04-24T16:51:53;9.50;99.90
22319;DHT22;11327;52.334;9.506;2023-04-24T16:55:13;9.50;99.90
22319;DHT22;11327;52.334;9.506;2023-04-24T16:58:34;9.40;99.90
22319;DHT22;11327;52.334;9.506;2023-04-24T17:01:55;9.60;99.90
22319;DHT22;11327;52.334;9.506;2023-04-24T17:05:16;9.50;99.90
22319;DHT22;11327;52.334;9.506;2023-04-24T17:08:38;9.60;99.90
22319;DHT22;11327;52.334;9.506;2023-04-24T17:11:59;9.50;99.90
22319;DHT22;11327;52.334;9.506;2023-04-24T17:15:21;9.50;99.90
22319;DHT22;11327;52.334;9.506;2023-04-24T17:18:42;9.50;99.90
22319;DHT22;11327;52.334;9.506;2023-04-24T17:22:03;9.40;99.90
22319;DHT22;11327;52.334;9.506;2023-04-24T17:25:24;9.40;99.90
22319;DHT22;11327;52.334;9.506;2023-04-24T17:28:44;9.50;99.90
22319;DHT22;11327;52.334;9.506;2023-04-24T17:32:05;9.50;99.90
22319;DHT22;11327;52.334;9.506;2023-04-24T17:35:26;9.40;99.90
22319;DHT22;11327;52.334;9.506;2023-04-24T17:38:47;9.40;99.90
22319;DHT22;11327;52.334;9.506;2023-04-24T17:42:09;9.30;99.90
22319;DHT22;11327;52.334;9.506;2023-04-24T17:45:30;9.30;99.90
22319;DHT22;11327;52.334;9.506;2023-04-24T17:48:51;9.40;99.90
22319;DHT22;11327;52.334;9.506;2023-04-24T17:52:12;9.30;99.90
22319;DHT22;11327;52.334;9.506;2023-04-24T17:55:33;9.40;99.90
22319;DHT22;11327;52.334;9.506;2023-04-24T17:58:54;9.20;99.90
22319;DHT22;11327;52.334;9.506;2023-04-24T18:02:15;9.30;99.90
22319;DHT22;11327;52.334;9.506;2023-04-24T18:05:37;9.30;99.90
22319;DHT22;11327;52.334;9.506;2023-04-24T18:08:58;9.20;99.90
22319;DHT22;11327;52.334;9.506;2023-04-24T18:12:19;9.20;99.90
22319;DHT22;11327;52.334;9.506;2023-04-24T18:15:39;9.20;99.90
22319;DHT22;11327;52.334;9.506;2023-04-24T18:19:03;9.10;99.90
22319;DHT22;11327;52.334;9.506;2023-04-24T18:22:24;9.10;99.90
22319;DHT22;11327;52.334;9.506;2023-04-24T18:25:44;9.10;99.90
22319;DHT22;11327;52.334;9.506;2023-04-24T18:29:05;9.00;99.90
22319;DHT22;11327;52.334;9.506;2023-04-24T18:32:26;9.00;99.90
22319;DHT22;11327;52.334;9.506;2023-04-24T18:35:47;8.90;99.90
22319;DHT22;11327;52.334;9.506;2023-04-24T18:39:07;8.90;99.90
22319;DHT22;11327;52.334;9.506;2023-04-24T18:42:28;8.80;99.90
22319;DHT22;11327;52.334;9.506;2023-04-24T18:45:49;8.80;99.90
22319;DHT22;11327;52.334;9.506;2023-04-24T18:49:10;8.70;99.90
22319;DHT22;11327;52.334;9.506;2023-04-24T18:52:30;8.70;99.90
22319;DHT22;11327;52.334;9.506;2023-04-24T18:55:51;8.80;99.90
22319;DHT22;11327;52.334;9.506;2023-04-24T18:59:12;8.60;99.90
22319;DHT22;11327;52.334;9.506;2023-04-24T19:02:33;8.60;99.90
22319;DHT22;11327;52.334;9.506;2023-04-24T19:05:54;8.60;99.90
22319;DHT22;11327;52.334;9.506;2023-04-24T19:09:14;8.60;99.90
22319;DHT22;11327;52.334;9.506;2023-04-24T19:12:35;8.60;99.90
22319;DHT22;11327;52.334;9.506;2023-04-24T19:15:56;8.50;99.90
22319;DHT22;11327;52.334;9.506;2023-04-24T19:19:16;8.50;99.90
22319;DHT22;11327;52.334;9.506;2023-04-24T19:22:37;8.50;99.90
22319;DHT22;11327;52.334;9.506;2023-04-24T19:25:58;8.40;99.90
22319;DHT22;11327;52.334;9.506;2023-04-24T19:29:18;8.40;99.90
22319;DHT22;11327;52.334;9.506;2023-04-24T19:32:39;8.50;99.90
22319;DHT22;11327;52.334;9.506;2023-04-24T19:36:00;8.40;99.90
22319;DHT22;11327;52.334;9.506;2023-04-24T19:39:21;8.40;99.90
22319;DHT22;11327;52.334;9.506;2023-04-24T19:42:42;8.50;99.90
22319;DHT22;11327;52.334;9.506;2023-04-24T19:46:03;8.50;99.90
22319;DHT22;11327;52.334;9.506;2023-04-24T19:49:24;8.50;99.90
22319;DHT22;11327;52.334;9.506;2023-04-24T19:52:45;8.50;99.90
22319;DHT22;11327;52.334;9.506;2023-04-24T19:56:05;8.50;99.90
22319;DHT22;11327;52.334;9.506;2023-04-24T19:59:26;8.40;99.90
22319;DHT22;11327;52.334;9.506;2023-04-24T20:02:47;8.50;99.90
22319;DHT22;11327;52.334;9.506;2023-04-24T20:06:07;8.40;99.90
22319;DHT22;11327;52.334;9.506;2023-04-24T20:09:28;8.50;99.90
22319;DHT22;11327;52.334;9.506;2023-04-24T20:12:49;8.60;99.90
22319;DHT22;11327;52.334;9.506;2023-04-24T20:16:10;8.40;99.90
22319;DHT22;11327;52.334;9.506;2023-04-24T20:19:31;8.40;99.90
22319;DHT22;11327;52.334;9.506;2023-04-24T20:22:51;8.40;99.90
22319;DHT22;11327;52.334;9.506;2023-04-24T20:26:12;8.40;99.90
22319;DHT22;11327;52.334;9.506;2023-04-24T20:29:33;8.40;99.90
22319;DHT22;11327;52.334;9.506;2023-04-24T20:32:54;8.40;99.90
22319;DHT22;11327;52.334;9.506;2023-04-24T20:36:15;8.40;99.90
22319;DHT22;11327;52.334;9.506;2023-04-24T20:39:35;8.50;99.90
22319;DHT22;11327;52.334;9.506;2023-04-24T20:42:58;8.40;99.90
22319;DHT22;11327;52.334;9.506;2023-04-24T20:46:18;8.50;99.90
22319;DHT22;11327;52.334;9.506;2023-04-24T20:49:39;8.40;99.90
22319;DHT22;11327;52.334;9.506;2023-04-24T20:53:00;8.40;99.90
22319;DHT22;11327;52.334;9.506;2023-04-24T20:56:21;8.40;99.90
22319;DHT22;11327;52.334;9.506;2023-04-24T20:59:42;8.50;99.90
22319;DHT22;11327;52.334;9.506;2023-04-24T21:03:03;8.50;99.90
22319;DHT22;11327;52.334;9.506;2023-04-24T21:06:25;8.50;99.90
22319;DHT22;11327;52.334;9.506;2023-04-24T21:09:45;8.60;99.90
22319;DHT22;11327;52.334;9.506;2023-04-24T21:13:06;8.50;99.90
22319;DHT22;11327;52.334;9.506;2023-04-24T21:16:27;8.60;99.90
22319;DHT22;11327;52.334;9.506;2023-04-24T21:19:47;8.50;99.90
22319;DHT22;11327;52.334;9.506;2023-04-24T21:23:08;8.50;99.90
22319;DHT22;11327;52.334;9.506;2023-04-24T21:26:29;8.50;99.90